createdAt,value
2019-05-01T13:18:04.067Z,20.60
2019-05-01T13:20:34.420Z,20.70
2019-05-01T13:23:04.852Z,20.90
2019-05-01T13:25:34.952Z,21.10
2019-05-01T13:28:24.717Z,21.20
2019-05-01T13:30:56.617Z,21.30
2019-05-01T13:34:14.279Z,21.30
2019-05-01T13:36:44.639Z,21.30
2019-05-01T13:39:15.075Z,21.30
2019-05-01T13:41:45.421Z,21.30
2019-05-01T13:44:15.695Z,21.30
2019-05-01T13:46:45.951Z,21.30
2019-05-01T13:49:16.208Z,21.30
2019-05-01T13:51:46.483Z,21.30
2019-05-01T13:54:16.817Z,21.20
2019-05-01T13:56:47.113Z,21.20
2019-05-01T13:59:17.542Z,21.20
2019-05-01T14:01:47.809Z,21.20
2019-05-01T14:04:21.573Z,21.20
2019-05-01T14:06:51.718Z,21.20
2019-05-01T14:09:23.782Z,21.20
2019-05-01T14:11:54.052Z,21.30
2019-05-01T14:14:24.319Z,21.30
2019-05-01T14:16:54.580Z,21.40
2019-05-01T14:19:24.840Z,21.40
2019-05-01T14:21:56.749Z,21.40
2019-05-01T14:24:31.592Z,21.50
2019-05-01T14:27:01.863Z,21.50
2019-05-01T14:29:32.117Z,21.50
2019-05-01T14:32:02.746Z,21.60
2019-05-01T14:34:33.012Z,21.60
2019-05-01T14:37:03.285Z,21.60
2019-05-01T14:39:33.573Z,21.70
2019-05-01T14:42:03.819Z,21.70
2019-05-01T14:44:36.910Z,21.70
2019-05-01T14:47:06.132Z,21.70
2019-05-01T14:49:36.403Z,21.80
2019-05-01T14:52:06.736Z,21.80
2019-05-01T14:54:38.145Z,21.80
2019-05-01T14:57:08.404Z,21.80
2019-05-01T14:59:38.693Z,21.80
2019-05-01T15:02:08.963Z,21.70
